createdAt,value
2017-07-03T00:01:24.610Z,14.30
2017-07-03T00:03:52.198Z,14.30
2017-07-03T00:06:19.738Z,14.20
2017-07-03T00:08:47.499Z,14.00
2017-07-03T00:11:15.058Z,14.00
2017-07-03T00:13:42.718Z,13.80
2017-07-03T00:16:10.490Z,13.80
2017-07-03T00:18:38.055Z,13.60
2017-07-03T00:21:05.592Z,13.60
2017-07-03T00:23:33.131Z,13.50
2017-07-03T00:26:00.691Z,13.40
2017-07-03T00:28:28.231Z,13.40
2017-07-03T00:30:56.557Z,13.50
2017-07-03T00:33:24.109Z,13.50
2017-07-03T00:35:51.674Z,13.40
2017-07-03T00:38:19.250Z,13.40
2017-07-03T00:40:46.915Z,13.30
2017-07-03T00:43:14.450Z,13.40
2017-07-03T00:45:42.029Z,13.10
2017-07-03T00:48:09.596Z,13.00
2017-07-03T00:50:37.163Z,13.00
2017-07-03T00:53:04.698Z,13.10
2017-07-03T00:55:32.275Z,13.00
2017-07-03T00:57:59.835Z,13.00
2017-07-03T01:00:27.399Z,13.00
2017-07-03T01:02:55.086Z,13.10
2017-07-03T01:05:22.645Z,13.10
2017-07-03T01:07:50.188Z,13.00
2017-07-03T01:10:17.750Z,12.90
2017-07-03T01:12:45.287Z,13.00
2017-07-03T01:15:12.859Z,12.90
2017-07-03T01:17:40.390Z,12.90
2017-07-03T01:20:07.993Z,12.70
2017-07-03T01:22:35.524Z,12.70
2017-07-03T01:25:03.094Z,12.60
2017-07-03T01:27:30.634Z,12.60
2017-07-03T01:29:58.230Z,12.60
2017-07-03T01:32:25.795Z,12.50
2017-07-03T01:34:53.391Z,12.50
2017-07-03T01:37:21.735Z,12.60
2017-07-03T01:39:49.269Z,12.60
2017-07-03T01:42:16.810Z,12.50
2017-07-03T01:44:44.411Z,12.50
2017-07-03T01:47:11.974Z,12.30
2017-07-03T01:49:39.530Z,12.20
2017-07-03T01:52:07.095Z,12.10
2017-07-03T01:54:34.634Z,12.10
2017-07-03T01:57:02.162Z,12.20
2017-07-03T01:59:30.491Z,12.20
2017-07-03T02:01:58.019Z,12.10
2017-07-03T02:04:25.551Z,12.10
2017-07-03T02:06:53.858Z,12.00
2017-07-03T02:09:21.453Z,12.00
2017-07-03T02:11:49.223Z,12.00
2017-07-03T02:14:16.788Z,12.00
2017-07-03T02:16:44.324Z,11.80
2017-07-03T02:19:11.898Z,11.90
2017-07-03T02:21:39.458Z,11.90
2017-07-03T02:24:07.025Z,11.90
2017-07-03T02:26:34.554Z,11.90
2017-07-03T02:29:02.150Z,11.80
2017-07-03T02:31:29.703Z,11.80
2017-07-03T02:33:57.268Z,11.80
2017-07-03T02:36:24.806Z,11.70
2017-07-03T02:38:52.390Z,11.70
2017-07-03T02:41:19.922Z,11.70
2017-07-03T02:43:47.516Z,11.70
2017-07-03T02:46:15.058Z,11.70
2017-07-03T02:48:42.636Z,11.70
2017-07-03T02:51:10.196Z,11.70
2017-07-03T02:53:37.810Z,11.80
2017-07-03T02:56:06.110Z,11.70
2017-07-03T02:58:33.642Z,11.60
2017-07-03T03:01:01.975Z,11.70
2017-07-03T03:03:29.535Z,11.70
2017-07-03T03:05:57.194Z,11.60
2017-07-03T03:08:24.727Z,11.70
2017-07-03T03:10:52.292Z,11.70
2017-07-03T03:13:19.884Z,11.70
2017-07-03T03:15:47.450Z,11.70
2017-07-03T03:18:14.987Z,11.60
2017-07-03T03:20:42.526Z,11.50
2017-07-03T03:23:10.118Z,11.60
2017-07-03T03:25:37.686Z,11.50
2017-07-03T03:28:05.230Z,11.60
2017-07-03T03:30:32.769Z,11.50
2017-07-03T03:33:00.360Z,11.60
2017-07-03T03:35:27.899Z,11.60
2017-07-03T03:37:55.435Z,11.60
2017-07-03T03:40:23.042Z,11.60
2017-07-03T03:42:50.579Z,11.50
2017-07-03T03:45:18.170Z,11.40
2017-07-03T03:47:45.703Z,11.40
2017-07-03T03:50:13.235Z,11.50
2017-07-03T03:52:41.537Z,11.60
2017-07-03T03:55:10.734Z,11.70
2017-07-03T03:57:38.331Z,11.70
2017-07-03T04:00:05.883Z,11.70
2017-07-03T04:02:33.451Z,11.70
2017-07-03T04:05:00.995Z,11.70
2017-07-03T04:07:28.578Z,11.70
2017-07-03T04:09:56.138Z,11.70
2017-07-03T04:12:23.675Z,11.70
2017-07-03T04:14:51.254Z,11.60
2017-07-03T04:17:18.810Z,11.60
2017-07-03T04:19:46.379Z,11.60
2017-07-03T04:22:15.483Z,11.60
2017-07-03T04:24:43.020Z,11.60
2017-07-03T04:27:10.579Z,11.60
2017-07-03T04:29:38.172Z,11.60
2017-07-03T04:32:05.742Z,11.60
2017-07-03T04:34:33.372Z,11.60
2017-07-03T04:37:01.045Z,11.60
2017-07-03T04:39:28.602Z,11.70
2017-07-03T04:41:56.260Z,11.80
2017-07-03T04:44:23.790Z,11.80
2017-07-03T04:46:51.354Z,11.80
2017-07-03T04:49:18.887Z,11.90
2017-07-03T04:51:47.217Z,12.00
2017-07-03T04:54:14.777Z,12.00
2017-07-03T04:56:42.339Z,12.00
2017-07-03T04:59:09.879Z,12.10
2017-07-03T05:01:37.418Z,12.20
2017-07-03T05:04:05.747Z,12.40
2017-07-03T05:06:33.287Z,12.40
2017-07-03T05:09:00.874Z,12.40
2017-07-03T05:11:28.413Z,12.50
2017-07-03T05:13:55.988Z,12.60
2017-07-03T05:16:23.543Z,12.70
2017-07-03T05:18:51.107Z,12.90
2017-07-03T05:21:18.653Z,14.00
2017-07-03T05:23:46.229Z,16.50
2017-07-03T05:26:13.766Z,18.30
2017-07-03T05:31:34.313Z,21.50
2017-07-03T05:34:01.958Z,22.30
2017-07-03T05:36:29.534Z,21.30
2017-07-03T05:38:57.094Z,22.10
2017-07-03T05:41:24.652Z,22.60
2017-07-03T05:43:58.043Z,23.00
2017-07-03T05:46:25.566Z,22.70
2017-07-03T05:48:53.889Z,22.10
2017-07-03T05:51:21.454Z,22.00
2017-07-03T05:53:49.012Z,21.70
2017-07-03T05:56:16.574Z,22.50
2017-07-03T05:58:44.135Z,22.30
2017-07-03T06:01:11.670Z,23.70
2017-07-03T06:03:39.233Z,23.40
2017-07-03T06:06:06.816Z,22.90
2017-07-03T06:08:34.389Z,23.00
2017-07-03T06:11:01.953Z,23.20
2017-07-03T06:13:29.595Z,23.20
2017-07-03T06:15:57.132Z,24.00
2017-07-03T06:18:24.694Z,23.60
2017-07-03T06:20:52.230Z,24.20
2017-07-03T06:23:20.898Z,24.40
2017-07-03T06:25:48.531Z,24.40
2017-07-03T06:28:16.085Z,22.90
2017-07-03T06:30:43.614Z,22.30
2017-07-03T06:33:11.210Z,23.30
2017-07-03T06:35:38.762Z,24.20
2017-07-03T06:38:06.329Z,24.90
2017-07-03T06:40:33.890Z,20.90
2017-07-03T06:43:01.454Z,19.10
2017-07-03T06:45:29.134Z,17.90
2017-07-03T06:47:56.675Z,18.70
2017-07-03T06:50:24.350Z,19.50
2017-07-03T06:52:51.897Z,19.50
2017-07-03T06:55:19.554Z,19.50
2017-07-03T06:57:48.016Z,20.00
2017-07-03T07:03:08.589Z,18.20
2017-07-03T07:05:36.118Z,18.70
2017-07-03T07:08:03.658Z,21.20
2017-07-03T07:10:31.250Z,21.20
2017-07-03T07:12:58.812Z,19.90
2017-07-03T07:15:26.346Z,18.60
2017-07-03T07:17:53.883Z,19.70
2017-07-03T07:20:22.218Z,22.60
2017-07-03T07:22:49.770Z,22.60
2017-07-03T07:25:17.640Z,23.00
2017-07-03T07:27:45.206Z,23.80
2017-07-03T07:30:12.758Z,25.10
2017-07-03T07:32:40.286Z,24.10
2017-07-03T07:35:07.851Z,21.50
2017-07-03T07:37:35.442Z,19.50
2017-07-03T07:40:02.999Z,18.40
2017-07-03T07:42:30.534Z,17.80
2017-07-03T07:44:58.082Z,17.80
2017-07-03T07:47:26.385Z,21.10
2017-07-03T07:49:53.973Z,21.10
2017-07-03T07:52:21.526Z,22.30
2017-07-03T07:54:49.089Z,21.60
2017-07-03T07:57:16.627Z,22.10
2017-07-03T07:59:44.296Z,22.30
2017-07-03T08:02:11.830Z,22.10
2017-07-03T08:04:39.392Z,22.10
2017-07-03T08:07:06.930Z,21.10
2017-07-03T08:09:35.370Z,20.30
2017-07-03T08:12:02.934Z,20.30
2017-07-03T08:14:30.590Z,19.70
2017-07-03T08:16:58.127Z,19.80
2017-07-03T08:19:25.670Z,19.60
2017-07-03T08:21:54.136Z,20.20
2017-07-03T08:24:22.454Z,20.80
2017-07-03T08:26:50.038Z,20.70
2017-07-03T08:29:17.590Z,21.10
2017-07-03T08:31:45.160Z,21.80
2017-07-03T08:34:12.717Z,22.50
2017-07-03T08:36:40.274Z,22.20
2017-07-03T08:39:07.806Z,23.00
2017-07-03T08:41:35.346Z,23.10
2017-07-03T08:44:03.650Z,22.60
2017-07-03T08:46:31.194Z,22.60
2017-07-03T08:48:59.510Z,22.90
2017-07-03T08:51:27.089Z,22.90
2017-07-03T08:53:54.626Z,22.80
2017-07-03T08:56:22.173Z,22.90
2017-07-03T08:58:49.767Z,23.60
2017-07-03T09:01:17.302Z,24.00
2017-07-03T09:03:44.844Z,24.30
2017-07-03T09:06:12.391Z,24.20
2017-07-03T09:08:40.686Z,24.70
2017-07-03T09:11:08.242Z,24.70
2017-07-03T09:13:35.786Z,23.90
2017-07-03T09:16:04.222Z,24.20
2017-07-03T09:18:31.780Z,24.20
2017-07-03T09:20:59.349Z,23.30
2017-07-03T09:23:26.886Z,24.10
2017-07-03T09:25:54.437Z,24.90
2017-07-03T09:28:22.028Z,24.20
2017-07-03T09:30:49.683Z,23.70
2017-07-03T09:33:17.250Z,22.30
2017-07-03T09:35:44.910Z,23.40
2017-07-03T09:38:12.471Z,24.00
2017-07-03T09:40:40.039Z,24.10
2017-07-03T09:43:07.590Z,23.80
2017-07-03T09:45:35.255Z,23.90
2017-07-03T09:48:02.822Z,24.30
2017-07-03T09:50:30.376Z,24.00
2017-07-03T09:52:57.941Z,23.60
2017-07-03T09:55:25.502Z,23.50
2017-07-03T09:57:53.030Z,23.90
2017-07-03T10:00:20.626Z,23.60
2017-07-03T10:02:48.186Z,23.20
2017-07-03T10:05:15.747Z,23.70
2017-07-03T10:07:43.305Z,23.40
2017-07-03T10:10:10.833Z,23.90
2017-07-03T10:12:38.362Z,24.10
2017-07-03T10:15:05.982Z,24.40
2017-07-03T10:17:33.536Z,24.30
2017-07-03T10:20:01.066Z,24.30
2017-07-03T10:22:29.394Z,24.40
2017-07-03T10:24:56.943Z,24.40
2017-07-03T10:27:24.513Z,23.60
2017-07-03T10:29:55.611Z,23.50
2017-07-03T10:32:24.026Z,24.00
2017-07-03T10:34:51.565Z,23.90
2017-07-03T10:37:19.151Z,24.00
2017-07-03T10:39:46.815Z,23.20
2017-07-03T10:42:14.482Z,23.50
2017-07-03T10:44:42.039Z,23.00
2017-07-03T10:47:09.602Z,22.90
2017-07-03T10:49:37.167Z,23.30
2017-07-03T10:52:04.823Z,23.20
2017-07-03T10:54:32.391Z,23.30
2017-07-03T10:57:00.046Z,24.10
2017-07-03T10:59:27.616Z,24.30
2017-07-03T11:01:55.270Z,24.00
2017-07-03T11:04:22.831Z,24.40
2017-07-03T11:06:50.385Z,24.20
2017-07-03T11:09:17.961Z,24.30
2017-07-03T11:11:45.519Z,24.60
2017-07-03T11:14:13.078Z,24.80
2017-07-03T11:16:40.641Z,24.80
2017-07-03T11:19:08.170Z,24.50
2017-07-03T11:21:35.749Z,24.60
2017-07-03T11:24:03.322Z,24.70
2017-07-03T11:26:30.889Z,24.40
2017-07-03T11:28:58.450Z,24.60
2017-07-03T11:31:25.979Z,24.40
2017-07-03T11:33:53.558Z,24.20
2017-07-03T11:36:21.089Z,24.50
2017-07-03T11:38:48.646Z,24.60
2017-07-03T11:41:16.244Z,24.50
2017-07-03T11:43:43.906Z,24.60
2017-07-03T11:46:11.474Z,24.40
2017-07-03T11:48:39.033Z,24.70
2017-07-03T11:51:06.590Z,25.00
2017-07-03T11:53:34.158Z,24.80
2017-07-03T11:56:01.692Z,25.00
2017-07-03T11:58:29.271Z,24.70
2017-07-03T12:00:56.803Z,25.20
2017-07-03T12:03:24.336Z,25.10
2017-07-03T12:05:52.638Z,24.70
2017-07-03T12:08:20.171Z,24.70
2017-07-03T12:10:47.790Z,24.50
2017-07-03T12:13:15.350Z,24.50
2017-07-03T12:15:42.962Z,24.60
2017-07-03T12:18:10.569Z,24.60
2017-07-03T12:20:38.146Z,24.80
2017-07-03T12:23:05.702Z,24.90
2017-07-03T12:25:33.258Z,24.40
2017-07-03T12:28:00.826Z,24.80
2017-07-03T12:30:28.354Z,25.20
2017-07-03T12:32:55.947Z,25.40
2017-07-03T12:35:23.515Z,24.80
2017-07-03T12:37:51.072Z,25.00
2017-07-03T12:40:18.635Z,24.60
2017-07-03T12:42:46.279Z,24.20
2017-07-03T12:45:13.803Z,24.30
2017-07-03T12:47:42.134Z,24.60
2017-07-03T12:55:57.034Z,24.50
2017-07-03T12:58:24.702Z,24.50
2017-07-03T13:00:52.231Z,24.80
2017-07-03T13:03:19.822Z,24.70
2017-07-03T13:05:47.387Z,24.60
2017-07-03T13:08:15.039Z,24.50
2017-07-03T13:10:42.567Z,24.50
2017-07-03T13:13:10.127Z,24.70
2017-07-03T13:15:37.726Z,25.10
2017-07-03T13:18:05.290Z,25.00
2017-07-03T13:20:32.842Z,25.00
2017-07-03T13:23:00.508Z,25.00
2017-07-03T13:25:28.071Z,24.70
2017-07-03T13:27:55.638Z,24.60
2017-07-03T13:30:23.193Z,24.40
2017-07-03T13:32:50.734Z,24.50
2017-07-03T13:35:18.319Z,24.60
2017-07-03T13:37:45.878Z,24.40
2017-07-03T13:40:13.420Z,24.40
2017-07-03T13:42:40.955Z,24.50
2017-07-03T13:45:08.494Z,24.30
2017-07-03T13:47:36.850Z,24.00
2017-07-03T13:50:04.394Z,24.00
2017-07-03T13:52:31.957Z,24.20
2017-07-03T13:54:59.618Z,24.30
2017-07-03T13:57:27.158Z,24.40
2017-07-03T13:59:54.743Z,24.20
2017-07-03T14:02:22.300Z,24.40
2017-07-03T14:04:49.854Z,24.40
2017-07-03T14:07:17.390Z,24.60
2017-07-03T14:09:44.947Z,24.90
2017-07-03T14:12:12.548Z,24.90
2017-07-03T14:14:40.206Z,25.20
2017-07-03T14:17:07.783Z,24.60
2017-07-03T14:19:35.436Z,24.40
2017-07-03T14:22:02.970Z,24.40
2017-07-03T14:24:30.644Z,23.70
2017-07-03T14:26:58.180Z,23.10
2017-07-03T14:29:25.780Z,22.90
2017-07-03T14:31:53.434Z,23.10
2017-07-03T14:34:20.987Z,23.30
2017-07-03T14:36:48.556Z,23.20
2017-07-03T14:39:16.222Z,23.20
2017-07-03T14:41:43.782Z,23.10
2017-07-03T14:44:11.444Z,22.80
2017-07-03T14:46:38.976Z,22.70
2017-07-03T14:49:06.571Z,22.90
2017-07-03T14:51:34.134Z,23.00
2017-07-03T14:54:01.801Z,23.30
2017-07-03T14:56:29.326Z,23.20
2017-07-03T14:58:56.916Z,23.20
2017-07-03T15:01:24.450Z,23.40
2017-07-03T15:03:51.975Z,23.20
2017-07-03T15:06:20.310Z,22.70
2017-07-03T15:08:47.879Z,22.70
2017-07-03T15:11:16.155Z,22.70
2017-07-03T15:13:43.696Z,22.60
2017-07-03T15:16:11.267Z,22.80
2017-07-03T15:18:38.807Z,22.60
2017-07-03T15:21:06.394Z,22.70
2017-07-03T15:23:40.015Z,23.00
2017-07-03T15:26:07.570Z,22.90
2017-07-03T15:28:35.102Z,23.00
2017-07-03T15:31:02.681Z,22.80
2017-07-03T15:33:30.250Z,22.70
2017-07-03T15:35:57.995Z,22.80
2017-07-03T15:38:25.570Z,22.80
2017-07-03T15:40:53.129Z,22.60
2017-07-03T15:43:20.663Z,22.70
2017-07-03T15:45:48.254Z,22.60
2017-07-03T15:48:15.811Z,22.40
2017-07-03T15:50:43.343Z,22.40
2017-07-03T15:53:10.927Z,22.40
2017-07-03T15:55:38.499Z,22.30
2017-07-03T15:58:06.061Z,22.20
2017-07-03T16:00:33.596Z,22.30
2017-07-03T16:03:01.129Z,22.10
2017-07-03T16:05:29.459Z,22.40
2017-07-03T16:07:57.014Z,22.40
2017-07-03T16:10:24.544Z,22.50
2017-07-03T16:12:52.143Z,22.20
2017-07-03T16:15:19.693Z,22.10
2017-07-03T16:17:47.230Z,22.10
2017-07-03T16:20:14.911Z,22.30
2017-07-03T16:22:42.470Z,22.30
2017-07-03T16:25:10.140Z,22.30
2017-07-03T16:27:37.689Z,22.00
2017-07-03T16:30:05.268Z,22.20
2017-07-03T16:32:32.802Z,22.30
2017-07-03T16:35:00.385Z,22.30
2017-07-03T16:37:27.946Z,22.30
2017-07-03T16:39:55.492Z,22.10
2017-07-03T16:42:23.075Z,22.20
2017-07-03T16:44:50.633Z,22.10
2017-07-03T16:47:18.167Z,22.10
2017-07-03T16:49:45.743Z,22.00
2017-07-03T16:52:13.316Z,22.00
2017-07-03T16:54:40.877Z,22.10
2017-07-03T16:57:08.431Z,22.00
2017-07-03T16:59:35.989Z,21.90
2017-07-03T17:02:03.567Z,21.70
2017-07-03T17:04:31.106Z,21.80
2017-07-03T17:06:58.682Z,21.60
2017-07-03T17:09:26.209Z,21.70
2017-07-03T17:11:53.799Z,21.50
2017-07-03T17:14:21.363Z,21.40
2017-07-03T17:16:48.922Z,21.50
2017-07-03T17:19:16.581Z,21.60
2017-07-03T17:21:50.394Z,21.40
2017-07-03T17:24:17.954Z,21.40
2017-07-03T17:26:45.491Z,21.50
2017-07-03T17:29:13.163Z,21.30
2017-07-03T17:31:40.734Z,21.20
2017-07-03T17:34:08.270Z,21.10
2017-07-03T17:36:35.858Z,21.10
2017-07-03T17:39:03.404Z,20.80
2017-07-03T17:41:30.981Z,20.70
2017-07-03T17:43:58.542Z,20.70
2017-07-03T17:46:26.099Z,20.70
2017-07-03T17:51:46.823Z,20.70
2017-07-03T17:54:14.390Z,20.60
2017-07-03T17:56:42.047Z,20.40
2017-07-03T17:59:09.615Z,20.50
2017-07-03T18:01:37.174Z,20.20
2017-07-03T18:04:04.710Z,20.20
2017-07-03T18:06:32.291Z,20.30
2017-07-03T18:08:59.851Z,20.10
2017-07-03T18:11:27.411Z,20.20
2017-07-03T18:13:54.950Z,20.20
2017-07-03T18:16:22.541Z,20.10
2017-07-03T18:18:50.076Z,20.20
2017-07-03T18:21:17.658Z,20.00
2017-07-03T18:23:45.214Z,20.10
2017-07-03T18:26:12.762Z,19.90
2017-07-03T18:28:40.343Z,19.80
2017-07-03T18:31:07.907Z,19.90
2017-07-03T18:33:35.451Z,19.80
2017-07-03T18:36:03.110Z,19.80
2017-07-03T18:38:30.674Z,19.80
2017-07-03T18:40:58.219Z,19.70
2017-07-03T18:43:25.874Z,19.50
2017-07-03T18:45:53.473Z,19.50
2017-07-03T18:48:21.152Z,19.70
2017-07-03T18:50:48.811Z,19.60
2017-07-03T18:53:16.375Z,19.70
2017-07-03T18:55:43.923Z,19.60
2017-07-03T18:58:11.499Z,19.50
2017-07-03T19:00:39.044Z,19.50
2017-07-03T19:03:06.616Z,19.50
2017-07-03T19:05:34.151Z,19.50
2017-07-03T19:08:01.822Z,19.40
2017-07-03T19:10:29.378Z,19.40
2017-07-03T19:12:56.941Z,19.30
2017-07-03T19:15:24.506Z,19.20
2017-07-03T19:17:52.179Z,19.20
2017-07-03T19:20:19.745Z,19.30
2017-07-03T19:22:47.386Z,19.30
2017-07-03T19:25:14.955Z,19.30
2017-07-03T19:27:42.614Z,19.20
2017-07-03T19:30:10.172Z,19.10
2017-07-03T19:32:37.723Z,19.10
2017-07-03T19:35:05.301Z,19.10
2017-07-03T19:37:32.863Z,19.00
2017-07-03T19:40:00.394Z,19.00
2017-07-03T19:42:27.935Z,19.00
2017-07-03T19:44:55.543Z,18.90
2017-07-03T19:47:23.105Z,18.90
2017-07-03T19:49:50.671Z,19.00
2017-07-03T19:52:18.226Z,19.00
2017-07-03T19:54:45.890Z,18.90
2017-07-03T19:57:13.431Z,18.80
2017-07-03T19:59:41.034Z,18.40
2017-07-03T20:02:08.578Z,17.90
2017-07-03T20:04:36.131Z,17.50
2017-07-03T20:07:03.693Z,17.40
2017-07-03T20:09:31.248Z,17.00
2017-07-03T20:11:58.779Z,16.90
2017-07-03T20:14:26.385Z,16.80
2017-07-03T20:16:53.939Z,16.60
2017-07-03T20:19:21.496Z,16.60
2017-07-03T20:21:49.027Z,16.50
2017-07-03T20:24:16.575Z,16.50
2017-07-03T20:26:44.126Z,16.50
2017-07-03T20:29:12.426Z,16.50
2017-07-03T20:31:39.961Z,16.50
2017-07-03T20:34:08.289Z,16.50
2017-07-03T20:36:35.842Z,16.40
2017-07-03T20:39:09.459Z,16.50
2017-07-03T20:41:37.007Z,16.50
2017-07-03T20:44:04.583Z,16.50
2017-07-03T20:49:06.122Z,16.50
2017-07-03T20:51:33.656Z,16.40
2017-07-03T20:54:02.000Z,16.50
2017-07-03T20:56:29.554Z,16.40
2017-07-03T20:58:57.135Z,16.50
2017-07-03T21:01:25.447Z,16.40
2017-07-03T21:03:53.016Z,16.40
2017-07-03T21:06:20.559Z,16.40
2017-07-03T21:08:48.910Z,16.40
2017-07-03T21:11:16.560Z,16.40
2017-07-03T21:13:44.218Z,16.30
2017-07-03T21:16:11.754Z,16.30
2017-07-03T21:18:39.323Z,16.30
2017-07-03T21:21:06.902Z,16.30
2017-07-03T21:23:34.462Z,16.20
2017-07-03T21:26:02.014Z,16.30
2017-07-03T21:28:29.575Z,16.30
2017-07-03T21:30:57.139Z,16.50
2017-07-03T21:33:24.678Z,16.40
2017-07-03T21:35:52.264Z,16.50
2017-07-03T21:38:19.822Z,16.40
2017-07-03T21:40:47.368Z,16.40
2017-07-03T21:43:14.903Z,16.20
2017-07-03T21:45:42.450Z,16.20
2017-07-03T21:48:10.792Z,16.10
2017-07-03T21:50:38.351Z,16.00
2017-07-03T21:53:05.895Z,16.10
2017-07-03T21:55:33.500Z,16.10
2017-07-03T21:58:01.044Z,16.10
2017-07-03T22:00:28.582Z,16.00
2017-07-03T22:02:56.151Z,15.90
2017-07-03T22:05:23.699Z,15.90
2017-07-03T22:07:51.275Z,15.80
2017-07-03T22:10:18.827Z,15.80
2017-07-03T22:12:46.373Z,15.70
2017-07-03T22:15:15.047Z,15.80
2017-07-03T22:17:42.619Z,15.80
2017-07-03T22:20:10.183Z,15.70
2017-07-03T22:22:37.787Z,15.60
2017-07-03T22:25:05.346Z,15.60
2017-07-03T22:27:32.890Z,15.60
2017-07-03T22:30:00.447Z,15.60
2017-07-03T22:32:27.979Z,15.60
2017-07-03T22:34:55.567Z,15.60
2017-07-03T22:37:23.104Z,15.60
2017-07-03T22:39:50.681Z,15.50
2017-07-03T22:42:18.243Z,15.30
2017-07-03T22:44:45.906Z,15.30
2017-07-03T22:47:13.482Z,15.40
2017-07-03T22:49:41.141Z,15.50
2017-07-03T22:52:09.316Z,15.40
2017-07-03T22:54:36.877Z,15.50
2017-07-03T22:57:04.418Z,15.40
2017-07-03T22:59:31.954Z,15.20
2017-07-03T23:01:59.553Z,15.30
2017-07-03T23:04:27.120Z,15.20
2017-07-03T23:06:54.672Z,15.20
2017-07-03T23:09:22.230Z,15.20
2017-07-03T23:11:49.799Z,15.00
2017-07-03T23:14:17.344Z,15.00
2017-07-03T23:16:44.881Z,15.00
2017-07-03T23:19:12.484Z,15.10
2017-07-03T23:21:40.044Z,15.10
2017-07-03T23:24:07.591Z,14.90
2017-07-03T23:26:35.258Z,14.90
2017-07-03T23:29:02.797Z,14.90
2017-07-03T23:31:30.391Z,14.80
2017-07-03T23:33:57.946Z,14.90
2017-07-03T23:36:25.611Z,14.80
2017-07-03T23:38:53.175Z,14.80
2017-07-03T23:41:20.740Z,14.80
2017-07-03T23:43:48.280Z,14.70
2017-07-03T23:46:15.858Z,14.60
2017-07-03T23:48:43.459Z,14.60
2017-07-03T23:51:11.785Z,14.50
2017-07-03T23:53:39.318Z,14.50
2017-07-03T23:56:06.882Z,14.40
2017-07-03T23:58:34.423Z,14.30
